Cuddapah, Cuddapah Airport (VOCP)

NameCuddapah Airport
CityCuddapah
CountryIndia
ICAOVOCP
IATACDP
Altitude131 m
CoordinatesGoogle Map
Live Air TrafficLiveATC.net
METARVOCP 151000Z 01003KT 6000 FEW020 36/24 Q1008
2018-10-15 10:00:00 Wind: North (10°) 1.54 m/s - Visibility: 6000 m - Temperature: 36 °C - Dew point: 24 °C - Humidity: 50% - Pressure: 1008 hPa

Sorry, no flights used the airport in this database.